createdAt,value
2023-06-19T00:01:03.900Z,18.63
2023-06-19T00:03:30.418Z,16.05
2023-06-19T00:05:56.931Z,15.88
2023-06-19T00:08:23.648Z,14.93
2023-06-19T00:10:50.201Z,16.25
2023-06-19T00:13:16.711Z,15.52
2023-06-19T00:15:43.163Z,18.25
2023-06-19T00:18:11.129Z,13.48
2023-06-19T00:20:37.665Z,14.70
2023-06-19T00:23:04.115Z,14.50
2023-06-19T00:25:30.606Z,14.77
2023-06-19T00:27:57.073Z,12.93
2023-06-19T00:30:23.653Z,14.82
2023-06-19T00:32:54.404Z,14.32
2023-06-19T00:35:23.116Z,24.00
2023-06-19T00:37:49.591Z,12.50
2023-06-19T00:40:42.347Z,14.48
2023-06-19T00:43:08.926Z,13.27
2023-06-19T00:45:35.453Z,13.57
2023-06-19T00:48:02.142Z,14.80
2023-06-19T00:50:29.932Z,15.07
2023-06-19T00:52:56.523Z,15.90
2023-06-19T00:55:23.063Z,17.63
2023-06-19T00:57:50.535Z,13.18
2023-06-19T01:00:17.026Z,14.90
2023-06-19T01:02:43.672Z,16.85
2023-06-19T01:05:10.194Z,14.95
2023-06-19T01:07:47.605Z,13.98
2023-06-19T01:10:17.579Z,14.27
2023-06-19T01:12:51.764Z,14.48
2023-06-19T01:15:18.478Z,16.05
2023-06-19T01:17:46.127Z,16.77
2023-06-19T01:20:13.060Z,16.23
2023-06-19T01:22:39.905Z,19.90
2023-06-19T01:25:06.932Z,18.92
2023-06-19T01:27:33.653Z,16.13
2023-06-19T01:30:00.860Z,16.70
2023-06-19T01:32:32.703Z,16.63
2023-06-19T01:34:59.746Z,21.02
2023-06-19T01:37:28.418Z,17.08
2023-06-19T01:39:57.035Z,21.75
2023-06-19T01:42:23.644Z,21.00
2023-06-19T01:44:50.757Z,21.90
2023-06-19T01:47:21.300Z,23.80
2023-06-19T01:49:47.869Z,23.42
2023-06-19T01:52:14.527Z,18.73
2023-06-19T01:54:41.096Z,19.45
2023-06-19T01:57:07.864Z,19.50
2023-06-19T01:59:34.316Z,16.58
2023-06-19T02:02:00.765Z,16.13
2023-06-19T02:04:27.202Z,17.73
2023-06-19T02:06:53.694Z,18.73
2023-06-19T02:09:20.160Z,16.08
2023-06-19T02:11:46.644Z,19.05
2023-06-19T02:14:13.131Z,17.17
2023-06-19T02:16:39.680Z,18.15
2023-06-19T02:19:06.184Z,19.00
2023-06-19T02:21:32.647Z,17.90
2023-06-19T02:23:59.306Z,17.05
2023-06-19T02:26:28.648Z,17.90
2023-06-19T02:28:55.371Z,17.90
2023-06-19T02:31:22.524Z,20.65
2023-06-19T02:33:49.260Z,21.90
2023-06-19T02:36:20.646Z,19.25
2023-06-19T02:38:47.872Z,23.88
2023-06-19T02:41:14.502Z,18.45
2023-06-19T02:43:41.924Z,21.58
2023-06-19T02:46:09.537Z,21.80
2023-06-19T02:48:37.191Z,21.27
2023-06-19T02:51:03.758Z,25.05
2023-06-19T02:53:30.274Z,26.45
2023-06-19T02:55:56.901Z,24.30
2023-06-19T02:58:24.501Z,26.30
2023-06-19T03:00:51.027Z,24.25
2023-06-19T03:03:20.701Z,24.45
2023-06-19T03:05:47.356Z,24.17
2023-06-19T03:08:13.904Z,28.08
2023-06-19T03:10:40.326Z,23.15
2023-06-19T03:13:06.887Z,23.65
2023-06-19T03:15:33.366Z,22.33
2023-06-19T03:17:59.987Z,19.80
2023-06-19T03:20:26.828Z,19.83
2023-06-19T03:22:55.145Z,18.83
2023-06-19T03:25:21.583Z,19.08
2023-06-19T03:27:48.062Z,20.70
2023-06-19T03:30:17.302Z,18.50
2023-06-19T03:32:43.827Z,19.98
2023-06-19T03:35:11.331Z,19.20
2023-06-19T03:37:37.815Z,18.88
2023-06-19T03:40:04.498Z,19.92
2023-06-19T03:42:30.922Z,19.70
2023-06-19T03:44:57.341Z,21.50
2023-06-19T03:47:24.005Z,19.15
2023-06-19T03:49:51.827Z,16.73
2023-06-19T03:52:18.331Z,18.63
2023-06-19T03:54:44.786Z,21.50
2023-06-19T03:57:11.333Z,18.42
2023-06-19T03:59:37.771Z,21.27
2023-06-19T04:02:04.394Z,18.50
2023-06-19T04:04:30.925Z,21.38
2023-06-19T04:06:57.444Z,21.92
2023-06-19T04:09:23.894Z,21.85
2023-06-19T04:11:50.392Z,25.25
2023-06-19T04:14:16.947Z,30.95
2023-06-19T04:16:43.368Z,27.50
2023-06-19T04:19:10.025Z,21.92
2023-06-19T04:21:36.481Z,27.90
2023-06-19T04:24:06.064Z,24.02
2023-06-19T04:26:32.571Z,26.15
2023-06-19T04:28:59.008Z,24.63
2023-06-19T04:31:27.821Z,24.17
2023-06-19T04:33:56.197Z,28.48
2023-06-19T04:36:26.029Z,26.17
2023-06-19T04:38:53.618Z,29.75
2023-06-19T04:41:20.284Z,26.23
2023-06-19T04:43:46.794Z,22.60
2023-06-19T04:46:13.407Z,26.77
2023-06-19T04:48:40.761Z,26.95
2023-06-19T04:51:07.220Z,26.67
2023-06-19T04:53:33.683Z,28.73
2023-06-19T04:56:02.433Z,23.95
2023-06-19T04:58:29.525Z,26.48
2023-06-19T05:00:56.047Z,28.75
2023-06-19T05:03:23.266Z,25.83
2023-06-19T05:05:49.957Z,26.90
2023-06-19T05:08:16.592Z,23.50
2023-06-19T05:10:44.927Z,27.70
2023-06-19T05:13:14.674Z,23.60
2023-06-19T05:15:41.161Z,21.00
2023-06-19T05:18:07.977Z,22.23
2023-06-19T05:20:34.521Z,20.05
2023-06-19T05:23:00.996Z,24.48
2023-06-19T05:25:28.648Z,22.27
2023-06-19T05:27:55.128Z,21.58
2023-06-19T05:30:21.654Z,22.00
2023-06-19T05:32:48.327Z,23.35
2023-06-19T05:35:16.913Z,23.52
2023-06-19T05:37:44.870Z,23.25
2023-06-19T05:40:11.580Z,21.05
2023-06-19T05:42:38.075Z,24.55
2023-06-19T05:45:05.326Z,21.45
2023-06-19T05:47:31.907Z,19.38
2023-06-19T05:49:58.719Z,21.02
2023-06-19T05:52:25.481Z,19.35
2023-06-19T05:54:52.301Z,19.95
2023-06-19T05:57:21.955Z,22.45
2023-06-19T05:59:48.979Z,19.30
2023-06-19T06:02:16.303Z,17.50
2023-06-19T06:04:43.787Z,19.27
2023-06-19T06:07:10.391Z,18.33
2023-06-19T06:09:36.899Z,20.35
2023-06-19T06:12:03.444Z,18.83
2023-06-19T06:14:30.013Z,20.73
2023-06-19T06:16:56.507Z,17.05
2023-06-19T06:19:25.698Z,18.85
2023-06-19T06:21:52.188Z,21.13
2023-06-19T06:24:18.761Z,18.10
2023-06-19T06:26:48.274Z,18.20
2023-06-19T06:29:14.762Z,17.35
2023-06-19T06:31:42.474Z,18.42
2023-06-19T06:34:09.238Z,18.55
2023-06-19T06:36:37.137Z,16.35
2023-06-19T06:39:07.155Z,16.40
2023-06-19T06:41:33.590Z,17.38
2023-06-19T06:44:00.711Z,18.38
2023-06-19T06:46:27.228Z,18.50
2023-06-19T06:48:54.083Z,15.65
2023-06-19T06:51:20.568Z,15.82
2023-06-19T06:53:47.467Z,19.05
2023-06-19T06:56:13.903Z,19.85
2023-06-19T06:58:40.458Z,15.80
2023-06-19T07:01:09.861Z,15.82
2023-06-19T07:03:36.420Z,16.58
2023-06-19T07:06:03.939Z,17.05
2023-06-19T07:08:30.469Z,17.63
2023-06-19T07:10:56.917Z,15.98
2023-06-19T07:13:23.370Z,16.40
2023-06-19T07:15:49.833Z,16.77
2023-06-19T07:18:16.282Z,16.10
2023-06-19T07:20:43.031Z,15.85
2023-06-19T07:23:10.644Z,14.77
2023-06-19T07:25:37.271Z,14.10
2023-06-19T07:28:05.396Z,14.27
2023-06-19T07:30:32.184Z,14.60
2023-06-19T07:32:58.656Z,13.10
2023-06-19T07:35:25.111Z,14.35
2023-06-19T07:37:51.530Z,15.13
2023-06-19T07:40:18.024Z,14.52
2023-06-19T07:42:44.895Z,12.85
2023-06-19T07:45:12.086Z,15.07
2023-06-19T07:47:38.669Z,14.70
2023-06-19T07:50:05.460Z,14.13
2023-06-19T07:52:32.572Z,13.30
2023-06-19T07:54:59.488Z,15.48
2023-06-19T07:57:26.561Z,13.85
2023-06-19T07:59:56.133Z,13.38
2023-06-19T08:02:22.808Z,12.82
2023-06-19T08:04:49.524Z,13.52
2023-06-19T08:07:16.115Z,13.68
2023-06-19T08:09:42.655Z,12.48
2023-06-19T08:12:09.190Z,12.93
2023-06-19T08:14:35.623Z,13.07
2023-06-19T08:17:04.219Z,13.90
2023-06-19T08:19:30.689Z,13.35
2023-06-19T08:21:57.148Z,15.43
2023-06-19T08:24:23.686Z,15.95
2023-06-19T08:26:52.172Z,14.85
2023-06-19T08:29:19.355Z,14.73
2023-06-19T08:31:45.910Z,13.90
2023-06-19T08:34:12.337Z,16.30
2023-06-19T08:36:38.756Z,15.98
2023-06-19T08:39:05.298Z,15.98
2023-06-19T08:41:31.815Z,17.27
2023-06-19T08:43:59.109Z,18.90
2023-06-19T08:46:25.655Z,16.73
2023-06-19T08:48:52.191Z,16.73
2023-06-19T08:51:18.851Z,17.98
2023-06-19T08:53:46.632Z,22.20
2023-06-19T08:56:13.142Z,23.75
2023-06-19T08:58:39.732Z,22.55
2023-06-19T09:01:06.165Z,21.58
2023-06-19T09:03:32.753Z,21.08
2023-06-19T09:06:03.932Z,21.73
2023-06-19T09:08:30.606Z,20.42
2023-06-19T09:11:01.127Z,19.00
2023-06-19T09:13:29.848Z,17.48
2023-06-19T09:16:00.989Z,18.52
2023-06-19T09:18:27.469Z,17.55
2023-06-19T09:20:54.901Z,17.30
2023-06-19T09:23:21.486Z,18.25
2023-06-19T09:25:48.775Z,17.55
2023-06-19T09:28:25.328Z,20.60
2023-06-19T09:30:59.201Z,17.77
2023-06-19T09:33:30.301Z,19.02
2023-06-19T09:35:57.691Z,20.23
2023-06-19T09:38:28.581Z,17.05
2023-06-19T09:40:55.282Z,19.42
2023-06-19T09:43:26.739Z,18.55
2023-06-19T09:45:57.130Z,19.17
2023-06-19T09:48:30.689Z,18.60
2023-06-19T09:51:16.419Z,18.52
2023-06-19T09:53:44.606Z,17.30
2023-06-19T09:56:11.190Z,16.88
2023-06-19T09:58:38.671Z,16.35
2023-06-19T10:01:05.815Z,16.17
2023-06-19T10:03:33.117Z,14.70
2023-06-19T10:06:03.342Z,17.30
2023-06-19T10:08:33.643Z,16.30
2023-06-19T10:11:00.396Z,16.05
2023-06-19T10:13:34.343Z,15.82
2023-06-19T10:16:03.701Z,17.00
2023-06-19T10:18:30.511Z,15.50
2023-06-19T10:20:57.320Z,18.00
2023-06-19T10:23:25.327Z,15.45
2023-06-19T10:25:51.751Z,14.82
2023-06-19T10:28:18.404Z,15.80
2023-06-19T10:30:44.868Z,16.30
2023-06-19T10:33:13.426Z,13.57
2023-06-19T10:35:41.117Z,12.00
2023-06-19T10:38:08.258Z,11.60
2023-06-19T10:40:34.761Z,11.20
2023-06-19T10:43:01.258Z,10.77
2023-06-19T10:45:29.624Z,12.40
2023-06-19T10:47:56.730Z,11.88
2023-06-19T10:50:26.495Z,10.82
2023-06-19T10:52:56.064Z,14.10
2023-06-19T10:55:22.777Z,13.35
2023-06-19T10:57:50.808Z,13.05
2023-06-19T11:00:30.500Z,13.10
2023-06-19T11:02:57.980Z,10.43
2023-06-19T11:05:25.684Z,11.52
2023-06-19T11:07:59.354Z,11.40
2023-06-19T11:10:28.466Z,11.40
2023-06-19T11:12:59.065Z,11.23
2023-06-19T11:15:35.664Z,11.60
2023-06-19T11:18:03.083Z,12.10
2023-06-19T11:20:43.739Z,11.38
2023-06-19T11:23:10.286Z,10.77
2023-06-19T11:25:40.080Z,10.40
2023-06-19T11:28:11.989Z,10.53
2023-06-19T11:30:38.483Z,10.32
2023-06-19T11:33:05.051Z,11.30
2023-06-19T11:35:38.192Z,11.00
2023-06-19T11:38:04.647Z,10.70
2023-06-19T11:40:39.431Z,10.63
2023-06-19T11:43:05.951Z,10.73
2023-06-19T11:45:32.512Z,10.93
2023-06-19T11:47:58.975Z,12.07
2023-06-19T11:50:29.104Z,12.23
2023-06-19T11:52:55.828Z,11.52
2023-06-19T11:55:22.400Z,12.57
2023-06-19T11:57:48.948Z,10.98
2023-06-19T12:00:16.428Z,10.60
2023-06-19T12:02:43.112Z,12.27
2023-06-19T12:05:10.024Z,10.88
2023-06-19T12:07:36.603Z,10.98
2023-06-19T12:10:04.960Z,10.18
2023-06-19T12:12:32.107Z,10.27
2023-06-19T12:14:58.570Z,10.20
2023-06-19T12:17:25.131Z,9.70
2023-06-19T12:19:51.643Z,9.52
2023-06-19T12:22:18.224Z,10.77
2023-06-19T12:24:44.792Z,10.05
2023-06-19T12:27:11.290Z,10.02
2023-06-19T12:29:37.756Z,10.77
2023-06-19T12:32:04.803Z,9.85
2023-06-19T12:34:31.954Z,9.73
2023-06-19T12:36:58.886Z,9.80
2023-06-19T12:39:25.994Z,9.55
2023-06-19T12:41:53.004Z,10.20
2023-06-19T12:44:19.611Z,9.60
2023-06-19T12:46:46.271Z,9.57
2023-06-19T12:49:40.817Z,10.13
2023-06-19T12:52:07.570Z,10.27
2023-06-19T12:54:34.072Z,10.20
2023-06-19T12:57:00.546Z,10.00
2023-06-19T12:59:28.239Z,8.68
2023-06-19T13:01:54.727Z,9.73
2023-06-19T13:04:21.240Z,9.85
2023-06-19T13:06:47.886Z,9.30
2023-06-19T13:09:14.417Z,9.07
2023-06-19T13:11:40.915Z,8.55
2023-06-19T13:14:07.350Z,8.60
2023-06-19T13:16:46.106Z,9.07
2023-06-19T13:19:14.481Z,10.73
2023-06-19T13:21:41.773Z,9.60
2023-06-19T13:24:08.346Z,9.05
2023-06-19T13:26:38.096Z,9.23
2023-06-19T13:29:04.614Z,9.40
2023-06-19T13:31:31.203Z,9.05
2023-06-19T13:33:58.186Z,8.38
2023-06-19T13:36:27.700Z,9.27
2023-06-19T13:38:54.426Z,9.20
2023-06-19T13:41:20.858Z,9.15
2023-06-19T13:43:51.764Z,9.57
2023-06-19T13:46:18.336Z,10.00
2023-06-19T13:48:44.882Z,10.48
2023-06-19T13:51:11.848Z,25.88
2023-06-19T13:53:38.264Z,17.23
2023-06-19T13:56:04.806Z,16.88
2023-06-19T13:58:31.296Z,12.80
2023-06-19T14:01:00.974Z,10.48
2023-06-19T14:03:27.570Z,10.32
2023-06-19T14:05:54.118Z,12.80
2023-06-19T14:08:20.618Z,10.40
2023-06-19T14:10:47.090Z,10.00
2023-06-19T14:13:15.083Z,11.55
2023-06-19T14:15:42.091Z,10.23
2023-06-19T14:18:10.930Z,9.00
2023-06-19T14:20:37.545Z,12.15
2023-06-19T14:23:03.956Z,10.52
2023-06-19T14:25:30.396Z,9.98
2023-06-19T14:27:56.872Z,9.35
2023-06-19T14:30:23.746Z,9.13
2023-06-19T14:32:50.608Z,7.72
2023-06-19T14:35:17.877Z,10.07
2023-06-19T14:37:44.811Z,8.70
2023-06-19T14:40:11.415Z,12.45
2023-06-19T14:42:37.867Z,9.18
2023-06-19T14:45:05.075Z,9.48
2023-06-19T14:47:31.652Z,10.15
2023-06-19T14:49:58.163Z,9.40
2023-06-19T14:52:24.672Z,8.73
2023-06-19T14:54:51.172Z,9.35
2023-06-19T14:57:17.909Z,9.07
2023-06-19T14:59:44.623Z,9.02
2023-06-19T15:02:12.199Z,9.95
2023-06-19T15:04:41.135Z,9.10
2023-06-19T15:07:07.899Z,9.25
2023-06-19T15:09:34.397Z,11.00
2023-06-19T15:12:00.943Z,11.18
2023-06-19T15:14:27.813Z,9.85
2023-06-19T15:16:55.130Z,9.23
2023-06-19T15:19:21.644Z,9.50
2023-06-19T15:21:48.159Z,10.57
2023-06-19T15:24:14.630Z,10.45
2023-06-19T15:26:41.211Z,10.95
2023-06-19T15:29:07.694Z,10.32
2023-06-19T15:31:34.161Z,10.25
2023-06-19T15:34:00.693Z,9.48
2023-06-19T15:36:27.212Z,9.57
2023-06-19T15:38:53.689Z,9.40
2023-06-19T15:41:20.128Z,8.65
2023-06-19T15:43:46.683Z,11.02
2023-06-19T15:46:14.955Z,13.52
2023-06-19T15:48:41.423Z,9.20
2023-06-19T15:51:07.884Z,9.48
2023-06-19T15:53:34.287Z,8.90
2023-06-19T15:56:00.858Z,10.25
2023-06-19T15:58:27.388Z,9.88
2023-06-19T16:00:54.191Z,12.45
2023-06-19T16:03:21.333Z,10.25
2023-06-19T16:06:06.339Z,9.70
2023-06-19T16:08:34.653Z,11.52
2023-06-19T16:11:01.174Z,12.05
2023-06-19T16:13:27.586Z,12.82
2023-06-19T16:15:54.106Z,9.93
2023-06-19T16:18:20.621Z,10.07
2023-06-19T16:20:47.205Z,9.80
2023-06-19T16:23:13.831Z,12.13
2023-06-19T16:25:43.767Z,9.73
2023-06-19T16:28:10.276Z,10.43
2023-06-19T16:30:36.727Z,15.88
2023-06-19T16:33:03.236Z,9.98
2023-06-19T16:35:29.743Z,12.50
2023-06-19T16:37:57.086Z,11.77
2023-06-19T16:40:26.128Z,9.38
2023-06-19T16:42:53.306Z,10.70
2023-06-19T16:45:19.757Z,9.98
2023-06-19T16:47:46.290Z,10.30
2023-06-19T16:50:12.818Z,9.75
2023-06-19T16:52:39.272Z,10.25
2023-06-19T16:55:05.938Z,8.80
2023-06-19T16:57:33.953Z,10.15
2023-06-19T17:00:03.246Z,10.10
2023-06-19T17:02:30.343Z,11.45
2023-06-19T17:04:56.922Z,11.55
2023-06-19T17:07:23.660Z,9.48
2023-06-19T17:09:50.277Z,11.40
2023-06-19T17:12:16.779Z,12.90
2023-06-19T17:14:43.610Z,11.05
2023-06-19T17:17:10.185Z,9.02
2023-06-19T17:19:36.679Z,9.95
2023-06-19T17:22:03.320Z,8.80
2023-06-19T17:24:29.912Z,9.02
2023-06-19T17:26:58.429Z,10.75
2023-06-19T17:29:26.136Z,10.88
2023-06-19T17:31:52.625Z,8.07
2023-06-19T17:34:19.083Z,8.98
2023-06-19T17:36:45.536Z,8.80
2023-06-19T17:39:12.076Z,8.23
2023-06-19T17:41:38.498Z,10.48
2023-06-19T17:44:05.222Z,8.90
2023-06-19T17:46:31.856Z,10.68
2023-06-19T17:48:58.309Z,8.98
2023-06-19T17:51:25.927Z,10.60
2023-06-19T17:53:52.383Z,11.05
2023-06-19T17:56:18.986Z,9.98
2023-06-19T17:58:45.499Z,10.07
2023-06-19T18:01:12.002Z,10.02
2023-06-19T18:03:38.755Z,8.27
2023-06-19T18:06:05.352Z,10.75
2023-06-19T18:08:31.799Z,8.93
2023-06-19T18:10:59.154Z,8.88
2023-06-19T18:13:25.589Z,11.00
2023-06-19T18:16:06.970Z,10.43
2023-06-19T18:18:37.531Z,9.13
2023-06-19T18:21:04.086Z,9.95
2023-06-19T18:23:30.511Z,9.40
2023-06-19T18:25:56.954Z,12.18
2023-06-19T18:28:23.423Z,9.88
2023-06-19T18:30:49.921Z,9.20
2023-06-19T18:33:16.362Z,9.35
2023-06-19T18:35:42.795Z,10.18
2023-06-19T18:38:09.312Z,12.35
2023-06-19T18:40:35.765Z,10.38
2023-06-19T18:43:02.192Z,12.38
2023-06-19T18:45:28.699Z,10.57
2023-06-19T18:47:55.153Z,9.52
2023-06-19T18:50:24.432Z,11.13
2023-06-19T18:52:51.152Z,10.70
2023-06-19T18:55:17.681Z,10.38
2023-06-19T18:57:44.798Z,8.68
2023-06-19T19:00:11.511Z,12.50
2023-06-19T19:02:38.003Z,10.15
2023-06-19T19:05:04.835Z,12.38
2023-06-19T19:07:31.258Z,9.52
2023-06-19T19:09:57.900Z,11.75
2023-06-19T19:12:24.388Z,10.23
2023-06-19T19:14:50.851Z,10.15
2023-06-19T19:17:17.326Z,10.38
2023-06-19T19:19:43.987Z,11.35
2023-06-19T19:22:10.594Z,9.88
2023-06-19T19:24:37.090Z,10.52
2023-06-19T19:27:03.702Z,11.30
2023-06-19T19:29:30.236Z,10.35
2023-06-19T19:31:59.723Z,10.32
2023-06-19T19:34:26.348Z,13.45
2023-06-19T19:36:53.114Z,11.73
2023-06-19T19:39:19.651Z,11.05
2023-06-19T19:41:46.904Z,11.80
2023-06-19T19:44:13.343Z,9.88
2023-06-19T19:46:40.896Z,11.05
2023-06-19T19:49:09.671Z,14.35
2023-06-19T19:51:36.238Z,11.48
2023-06-19T19:54:02.670Z,10.40
2023-06-19T19:56:29.162Z,11.38
2023-06-19T19:58:55.602Z,10.07
2023-06-19T20:01:22.152Z,11.73
2023-06-19T20:03:48.875Z,11.85
2023-06-19T20:06:15.527Z,12.48
2023-06-19T20:08:45.067Z,11.02
2023-06-19T20:11:14.845Z,10.98
2023-06-19T20:13:41.403Z,12.10
2023-06-19T20:16:11.331Z,12.57
2023-06-19T20:18:38.327Z,11.93
2023-06-19T20:21:04.816Z,10.80
2023-06-19T20:23:32.594Z,13.75
2023-06-19T20:25:59.042Z,11.40
2023-06-19T20:28:25.502Z,12.40
2023-06-19T20:30:52.228Z,13.32
2023-06-19T20:33:18.708Z,11.57
2023-06-19T20:35:47.875Z,13.93
2023-06-19T20:38:14.625Z,11.85
2023-06-19T20:40:43.357Z,13.95
2023-06-19T20:43:10.992Z,16.45
2023-06-19T20:45:41.782Z,11.90
2023-06-19T20:50:34.725Z,14.05
2023-06-19T20:53:01.216Z,17.85
2023-06-19T20:55:27.767Z,13.13
2023-06-19T20:57:56.439Z,13.77
2023-06-19T21:00:23.291Z,14.00
2023-06-19T21:02:50.157Z,14.18
2023-06-19T21:05:16.909Z,12.52
2023-06-19T21:07:43.755Z,13.60
2023-06-19T21:10:10.424Z,15.50
2023-06-19T21:12:36.865Z,13.35
2023-06-19T21:15:05.661Z,13.00
2023-06-19T21:17:32.184Z,13.45
2023-06-19T21:19:58.646Z,17.02
2023-06-19T21:22:25.111Z,14.55
2023-06-19T21:24:51.530Z,14.57
2023-06-19T21:27:18.019Z,13.70
2023-06-19T21:29:44.881Z,15.10
2023-06-19T21:32:11.375Z,13.95
2023-06-19T21:34:37.823Z,15.73
2023-06-19T21:37:04.334Z,13.68
2023-06-19T21:39:30.786Z,12.85
2023-06-19T21:41:57.307Z,15.18
2023-06-19T21:44:23.735Z,15.07
2023-06-19T21:46:50.466Z,14.27
2023-06-19T21:49:16.960Z,14.23
2023-06-19T21:51:44.836Z,14.55
2023-06-19T21:54:11.305Z,12.15
2023-06-19T21:56:39.851Z,14.13
2023-06-19T21:59:06.391Z,14.60
2023-06-19T22:01:32.886Z,13.60
2023-06-19T22:03:59.449Z,13.75
2023-06-19T22:06:26.023Z,13.63
2023-06-19T22:08:52.574Z,12.02
2023-06-19T22:11:19.070Z,14.02
2023-06-19T22:13:45.497Z,14.55
2023-06-19T22:16:12.036Z,13.35
2023-06-19T22:18:38.580Z,13.05
2023-06-19T22:21:05.127Z,12.52
2023-06-19T22:23:31.549Z,12.95
2023-06-19T22:25:59.114Z,15.00
2023-06-19T22:28:26.034Z,12.43
2023-06-19T22:30:52.458Z,12.80
2023-06-19T22:33:18.914Z,10.77
2023-06-19T22:35:45.419Z,12.90
2023-06-19T22:38:15.341Z,16.17
2023-06-19T22:40:41.896Z,14.30
2023-06-19T22:43:08.343Z,13.77
2023-06-19T22:45:34.937Z,12.40
2023-06-19T22:48:01.478Z,14.27
2023-06-19T22:50:28.017Z,14.02
2023-06-19T22:52:56.360Z,14.40
2023-06-19T22:55:24.139Z,13.25
2023-06-19T22:57:50.841Z,12.25
2023-06-19T23:00:17.359Z,13.90
2023-06-19T23:02:44.598Z,12.90
2023-06-19T23:05:11.708Z,12.77
2023-06-19T23:07:38.412Z,11.90
2023-06-19T23:10:05.242Z,13.02
2023-06-19T23:12:33.987Z,12.07
2023-06-19T23:15:00.580Z,13.23
2023-06-19T23:17:27.166Z,15.75
2023-06-19T23:19:53.756Z,13.40
2023-06-19T23:22:25.650Z,13.45
2023-06-19T23:24:55.102Z,13.90
2023-06-19T23:27:21.574Z,14.68
2023-06-19T23:29:48.001Z,15.88
2023-06-19T23:32:14.446Z,13.27
2023-06-19T23:34:40.985Z,19.30
2023-06-19T23:37:07.477Z,14.13
2023-06-19T23:39:33.933Z,13.82
2023-06-19T23:42:03.992Z,16.02
2023-06-19T23:44:30.980Z,13.45
2023-06-19T23:46:58.336Z,14.68
2023-06-19T23:49:24.801Z,13.45
2023-06-19T23:51:51.221Z,13.45
2023-06-19T23:54:17.846Z,13.90
2023-06-19T23:56:44.428Z,14.95
2023-06-19T23:59:10.868Z,17.05
